sensor_id;sensor_type;location;lat;lon;timestamp;P1;P2;P0
35654;PMS1003;21773;50.010;19.972;2023-05-20T00:01:49;29.67;24.00;20.00
35654;PMS1003;21773;50.010;19.972;2023-05-20T00:04:53;26.00;22.00;18.00
35654;PMS1003;21773;50.010;19.972;2023-05-20T00:07:58;28.00;24.50;20.00
35654;PMS1003;21773;50.010;19.972;2023-05-20T00:11:01;27.40;24.20;18.40
35654;PMS1003;21773;50.010;19.972;2023-05-20T00:14:05;25.00;21.80;16.40
35654;PMS1003;21773;50.010;19.972;2023-05-20T00:17:08;24.40;21.40;18.00
35654;PMS1003;21773;50.010;19.972;2023-05-20T00:20:12;22.00;19.00;15.00
35654;PMS1003;21773;50.010;19.972;2023-05-20T00:23:16;23.80;20.80;17.00
35654;PMS1003;21773;50.010;19.972;2023-05-20T00:26:19;21.60;19.00;16.00
35654;PMS1003;21773;50.010;19.972;2023-05-20T00:29:28;25.40;22.40;18.00
35654;PMS1003;21773;50.010;19.972;2023-05-20T00:32:31;24.75;21.75;17.75
35654;PMS1003;21773;50.010;19.972;2023-05-20T00:35:35;26.40;23.20;19.80
35654;PMS1003;21773;50.010;19.972;2023-05-20T00:38:39;25.50;22.00;17.00
35654;PMS1003;21773;50.010;19.972;2023-05-20T00:41:43;25.50;23.00;17.00
35654;PMS1003;21773;50.010;19.972;2023-05-20T00:44:46;26.60;22.00;16.80
35654;PMS1003;21773;50.010;19.972;2023-05-20T00:47:51;27.00;24.60;19.00
35654;PMS1003;21773;50.010;19.972;2023-05-20T00:50:57;24.25;21.50;17.00
35654;PMS1003;21773;50.010;19.972;2023-05-20T00:54:04;31.00;27.80;20.20
35654;PMS1003;21773;50.010;19.972;2023-05-20T00:57:07;28.60;23.80;17.60
35654;PMS1003;21773;50.010;19.972;2023-05-20T01:00:11;29.40;25.60;20.00
35654;PMS1003;21773;50.010;19.972;2023-05-20T01:03:16;24.00;22.25;17.50
35654;PMS1003;21773;50.010;19.972;2023-05-20T01:06:20;28.20;24.60;19.60
35654;PMS1003;21773;50.010;19.972;2023-05-20T01:09:24;28.80;24.80;18.80
35654;PMS1003;21773;50.010;19.972;2023-05-20T01:12:30;26.40;22.40;18.00
35654;PMS1003;21773;50.010;19.972;2023-05-20T01:15:38;26.00;23.00;18.00
35654;PMS1003;21773;50.010;19.972;2023-05-20T01:18:42;30.00;25.75;20.00
35654;PMS1003;21773;50.010;19.972;2023-05-20T01:21:49;29.40;26.00;20.40
35654;PMS1003;21773;50.010;19.972;2023-05-20T01:24:56;32.00;27.20;20.20
35654;PMS1003;21773;50.010;19.972;2023-05-20T01:28:00;27.00;23.00;17.50
35654;PMS1003;21773;50.010;19.972;2023-05-20T01:31:04;31.80;26.40;20.00
35654;PMS1003;21773;50.010;19.972;2023-05-20T01:34:13;28.80;23.60;18.00
35654;PMS1003;21773;50.010;19.972;2023-05-20T01:37:17;26.00;22.00;16.00
35654;PMS1003;21773;50.010;19.972;2023-05-20T01:40:23;31.40;26.40;20.40
35654;PMS1003;21773;50.010;19.972;2023-05-20T01:43:28;25.25;24.00;19.00
35654;PMS1003;21773;50.010;19.972;2023-05-20T01:46:33;26.00;20.00;17.00
35654;PMS1003;21773;50.010;19.972;2023-05-20T01:49:36;28.00;25.00;20.00
35654;PMS1003;21773;50.010;19.972;2023-05-20T01:52:40;25.60;21.60;18.00
35654;PMS1003;21773;50.010;19.972;2023-05-20T01:55:44;26.00;22.00;18.00
35654;PMS1003;21773;50.010;19.972;2023-05-20T01:58:47;27.00;22.40;18.00
35654;PMS1003;21773;50.010;19.972;2023-05-20T02:01:51;26.50;22.50;18.00
35654;PMS1003;21773;50.010;19.972;2023-05-20T02:04:54;25.75;23.00;16.50
35654;PMS1003;21773;50.010;19.972;2023-05-20T02:07:57;26.00;23.40;19.00
35654;PMS1003;21773;50.010;19.972;2023-05-20T02:11:03;24.40;20.20;16.00
35654;PMS1003;21773;50.010;19.972;2023-05-20T02:14:06;27.50;25.00;19.00
35654;PMS1003;21773;50.010;19.972;2023-05-20T02:17:10;23.60;20.00;16.00
35654;PMS1003;21773;50.010;19.972;2023-05-20T02:20:13;28.20;22.60;17.00
35654;PMS1003;21773;50.010;19.972;2023-05-20T02:23:17;25.40;23.40;19.00
35654;PMS1003;21773;50.010;19.972;2023-05-20T02:26:21;29.00;24.75;18.50
35654;PMS1003;21773;50.010;19.972;2023-05-20T02:29:25;26.00;22.00;17.00
35654;PMS1003;21773;50.010;19.972;2023-05-20T02:32:29;24.60;23.00;18.00
35654;PMS1003;21773;50.010;19.972;2023-05-20T02:35:34;26.00;23.00;19.60
35654;PMS1003;21773;50.010;19.972;2023-05-20T02:38:37;25.20;23.00;17.80
35654;PMS1003;21773;50.010;19.972;2023-05-20T02:41:45;27.40;21.00;16.40
35654;PMS1003;21773;50.010;19.972;2023-05-20T02:44:49;22.75;20.75;17.25
35654;PMS1003;21773;50.010;19.972;2023-05-20T02:47:53;30.40;23.00;17.00
35654;PMS1003;21773;50.010;19.972;2023-05-20T02:50:57;26.20;22.20;18.60
35654;PMS1003;21773;50.010;19.972;2023-05-20T02:54:01;28.25;23.75;18.75
35654;PMS1003;21773;50.010;19.972;2023-05-20T02:57:06;23.00;21.00;16.60
35654;PMS1003;21773;50.010;19.972;2023-05-20T03:00:09;29.40;24.80;18.80
35654;PMS1003;21773;50.010;19.972;2023-05-20T03:03:14;26.50;22.00;17.00
35654;PMS1003;21773;50.010;19.972;2023-05-20T03:06:17;29.00;25.00;19.20
35654;PMS1003;21773;50.010;19.972;2023-05-20T03:09:21;26.80;23.60;17.60
35654;PMS1003;21773;50.010;19.972;2023-05-20T03:12:25;25.00;22.00;19.40
35654;PMS1003;21773;50.010;19.972;2023-05-20T03:15:29;28.80;22.80;17.20
35654;PMS1003;21773;50.010;19.972;2023-05-20T03:18:32;27.00;23.00;18.00
35654;PMS1003;21773;50.010;19.972;2023-05-20T03:21:36;26.40;23.00;18.00
35654;PMS1003;21773;50.010;19.972;2023-05-20T03:24:39;26.00;23.60;19.40
35654;PMS1003;21773;50.010;19.972;2023-05-20T03:27:48;25.50;21.00;17.75
35654;PMS1003;21773;50.010;19.972;2023-05-20T03:30:52;27.75;21.75;17.75
35654;PMS1003;21773;50.010;19.972;2023-05-20T03:33:55;26.00;22.60;18.00
35654;PMS1003;21773;50.010;19.972;2023-05-20T03:36:58;31.50;25.50;19.50
35654;PMS1003;21773;50.010;19.972;2023-05-20T03:40:03;24.00;20.20;16.00
35654;PMS1003;21773;50.010;19.972;2023-05-20T03:43:10;25.20;22.00;17.00
35654;PMS1003;21773;50.010;19.972;2023-05-20T03:46:13;24.20;21.40;17.00
35654;PMS1003;21773;50.010;19.972;2023-05-20T03:49:17;26.80;22.80;18.20
35654;PMS1003;21773;50.010;19.972;2023-05-20T03:52:20;19.20;19.00;15.20
35654;PMS1003;21773;50.010;19.972;2023-05-20T03:55:24;24.60;22.00;17.60
35654;PMS1003;21773;50.010;19.972;2023-05-20T03:58:30;25.20;21.20;18.00
35654;PMS1003;21773;50.010;19.972;2023-05-20T04:01:33;26.00;22.60;18.00
35654;PMS1003;21773;50.010;19.972;2023-05-20T04:04:38;26.40;21.40;18.40
35654;PMS1003;21773;50.010;19.972;2023-05-20T04:07:43;28.40;25.00;19.60
35654;PMS1003;21773;50.010;19.972;2023-05-20T04:10:47;27.50;23.00;17.75
35654;PMS1003;21773;50.010;19.972;2023-05-20T04:13:52;24.50;23.25;19.00
35654;PMS1003;21773;50.010;19.972;2023-05-20T04:16:57;24.00;23.00;17.50
35654;PMS1003;21773;50.010;19.972;2023-05-20T04:20:01;25.00;21.60;17.00
35654;PMS1003;21773;50.010;19.972;2023-05-20T04:23:07;22.00;21.20;17.00
35654;PMS1003;21773;50.010;19.972;2023-05-20T04:26:11;23.25;19.25;16.25
35654;PMS1003;21773;50.010;19.972;2023-05-20T04:29:16;25.60;24.00;20.00
35654;PMS1003;21773;50.010;19.972;2023-05-20T04:32:20;24.00;21.40;18.00
35654;PMS1003;21773;50.010;19.972;2023-05-20T04:35:24;27.20;22.00;17.80
35654;PMS1003;21773;50.010;19.972;2023-05-20T04:38:31;24.40;20.00;16.40
35654;PMS1003;21773;50.010;19.972;2023-05-20T04:41:35;23.20;21.80;18.00
35654;PMS1003;21773;50.010;19.972;2023-05-20T04:44:40;20.20;20.00;16.20
35654;PMS1003;21773;50.010;19.972;2023-05-20T04:47:43;22.40;19.00;16.40
35654;PMS1003;21773;50.010;19.972;2023-05-20T04:50:47;23.60;20.60;16.60
35654;PMS1003;21773;50.010;19.972;2023-05-20T04:53:52;20.80;19.20;15.20
35654;PMS1003;21773;50.010;19.972;2023-05-20T04:56:56;24.40;21.40;17.00
35654;PMS1003;21773;50.010;19.972;2023-05-20T05:00:00;30.00;26.00;20.00
35654;PMS1003;21773;50.010;19.972;2023-05-20T05:03:08;24.60;22.00;18.00
35654;PMS1003;21773;50.010;19.972;2023-05-20T05:06:13;21.75;21.00;17.50
35654;PMS1003;21773;50.010;19.972;2023-05-20T05:09:16;22.00;21.00;17.00
35654;PMS1003;21773;50.010;19.972;2023-05-20T05:12:20;24.00;22.80;17.00
35654;PMS1003;21773;50.010;19.972;2023-05-20T05:15:25;21.75;19.50;16.50
35654;PMS1003;21773;50.010;19.972;2023-05-20T05:18:29;24.00;22.20;16.00
35654;PMS1003;21773;50.010;19.972;2023-05-20T05:21:33;26.40;23.00;19.00
35654;PMS1003;21773;50.010;19.972;2023-05-20T05:24:37;26.20;23.00;18.20
35654;PMS1003;21773;50.010;19.972;2023-05-20T05:27:41;31.20;28.60;22.40
35654;PMS1003;21773;50.010;19.972;2023-05-20T05:30:46;28.00;24.60;19.00
35654;PMS1003;21773;50.010;19.972;2023-05-20T05:33:49;24.00;22.00;18.00
35654;PMS1003;21773;50.010;19.972;2023-05-20T05:36:53;21.80;20.40;16.40
35654;PMS1003;21773;50.010;19.972;2023-05-20T05:39:57;26.00;24.00;20.00
35654;PMS1003;21773;50.010;19.972;2023-05-20T05:43:00;23.75;21.75;17.75
35654;PMS1003;21773;50.010;19.972;2023-05-20T05:46:05;23.75;21.00;18.00
35654;PMS1003;21773;50.010;19.972;2023-05-20T05:49:11;27.40;21.20;17.60
35654;PMS1003;21773;50.010;19.972;2023-05-20T05:52:15;25.00;22.00;18.00
35654;PMS1003;21773;50.010;19.972;2023-05-20T05:55:18;20.50;18.75;14.00
35654;PMS1003;21773;50.010;19.972;2023-05-20T05:58:21;27.00;23.50;19.00
35654;PMS1003;21773;50.010;19.972;2023-05-20T06:01:26;28.00;24.00;20.00
35654;PMS1003;21773;50.010;19.972;2023-05-20T06:04:29;24.25;21.50;16.00
35654;PMS1003;21773;50.010;19.972;2023-05-20T06:07:33;27.00;25.00;19.00
35654;PMS1003;21773;50.010;19.972;2023-05-20T06:10:36;25.00;22.00;18.00
35654;PMS1003;21773;50.010;19.972;2023-05-20T06:13:39;23.00;20.60;15.60
35654;PMS1003;21773;50.010;19.972;2023-05-20T06:16:44;25.00;23.20;17.40
35654;PMS1003;21773;50.010;19.972;2023-05-20T06:19:48;23.50;19.50;14.50
35654;PMS1003;21773;50.010;19.972;2023-05-20T06:22:51;24.75;21.00;17.25
35654;PMS1003;21773;50.010;19.972;2023-05-20T06:25:57;27.00;25.40;18.00
35654;PMS1003;21773;50.010;19.972;2023-05-20T06:29:02;25.60;22.60;18.00
35654;PMS1003;21773;50.010;19.972;2023-05-20T06:32:07;27.80;22.00;18.00
35654;PMS1003;21773;50.010;19.972;2023-05-20T06:35:11;26.25;23.25;20.00
35654;PMS1003;21773;50.010;19.972;2023-05-20T06:38:14;27.80;22.00;18.80
35654;PMS1003;21773;50.010;19.972;2023-05-20T06:41:19;25.00;21.00;16.40
35654;PMS1003;21773;50.010;19.972;2023-05-20T06:44:24;24.60;19.40;16.00
35654;PMS1003;21773;50.010;19.972;2023-05-20T06:47:52;24.60;19.80;16.20
35654;PMS1003;21773;50.010;19.972;2023-05-20T06:50:55;25.75;22.25;17.00
35654;PMS1003;21773;50.010;19.972;2023-05-20T06:53:59;22.33;20.33;16.00
35654;PMS1003;21773;50.010;19.972;2023-05-20T06:57:04;29.00;25.00;20.00
35654;PMS1003;21773;50.010;19.972;2023-05-20T07:00:10;25.80;23.00;18.80
35654;PMS1003;21773;50.010;19.972;2023-05-20T07:03:17;24.00;22.00;18.00
35654;PMS1003;21773;50.010;19.972;2023-05-20T07:06:21;24.20;21.40;17.00
35654;PMS1003;21773;50.010;19.972;2023-05-20T07:09:25;25.60;23.40;19.00
35654;PMS1003;21773;50.010;19.972;2023-05-20T07:12:29;26.00;24.40;18.40
35654;PMS1003;21773;50.010;19.972;2023-05-20T07:15:32;24.25;22.00;19.00
35654;PMS1003;21773;50.010;19.972;2023-05-20T07:18:39;25.60;23.40;19.00
35654;PMS1003;21773;50.010;19.972;2023-05-20T07:21:42;22.00;19.00;16.60
35654;PMS1003;21773;50.010;19.972;2023-05-20T07:25:18;22.00;20.75;16.00
35654;PMS1003;21773;50.010;19.972;2023-05-20T07:28:22;24.00;22.00;18.00
35654;PMS1003;21773;50.010;19.972;2023-05-20T07:31:26;31.20;25.40;20.00
35654;PMS1003;21773;50.010;19.972;2023-05-20T07:34:30;25.00;22.00;18.00
35654;PMS1003;21773;50.010;19.972;2023-05-20T07:37:34;27.40;25.00;20.00
35654;PMS1003;21773;50.010;19.972;2023-05-20T07:40:38;21.60;20.00;17.00
35654;PMS1003;21773;50.010;19.972;2023-05-20T07:43:44;25.00;22.00;18.00
35654;PMS1003;21773;50.010;19.972;2023-05-20T07:46:47;23.25;20.25;17.00
35654;PMS1003;21773;50.010;19.972;2023-05-20T07:49:54;25.40;22.40;18.40
35654;PMS1003;21773;50.010;19.972;2023-05-20T07:52:58;20.25;17.25;14.25
35654;PMS1003;21773;50.010;19.972;2023-05-20T07:56:04;20.00;19.00;15.00
35654;PMS1003;21773;50.010;19.972;2023-05-20T07:59:07;25.40;22.60;19.80
35654;PMS1003;21773;50.010;19.972;2023-05-20T08:02:16;22.60;20.40;16.40
35654;PMS1003;21773;50.010;19.972;2023-05-20T08:05:21;25.60;23.40;19.60
35654;PMS1003;21773;50.010;19.972;2023-05-20T08:08:25;22.20;20.80;17.00
35654;PMS1003;21773;50.010;19.972;2023-05-20T08:11:36;25.33;21.00;18.00
35654;PMS1003;21773;50.010;19.972;2023-05-20T08:14:40;23.00;22.00;17.00
35654;PMS1003;21773;50.010;19.972;2023-05-20T08:17:44;24.00;18.80;14.80
35654;PMS1003;21773;50.010;19.972;2023-05-20T08:20:49;25.40;21.00;17.00
35654;PMS1003;21773;50.010;19.972;2023-05-20T08:23:53;20.00;19.00;15.00
35654;PMS1003;21773;50.010;19.972;2023-05-20T08:26:57;21.00;20.00;17.00
35654;PMS1003;21773;50.010;19.972;2023-05-20T08:30:01;24.00;22.50;19.50
35654;PMS1003;21773;50.010;19.972;2023-05-20T08:33:05;24.00;21.50;18.00
35654;PMS1003;21773;50.010;19.972;2023-05-20T08:36:10;22.50;19.75;16.25
35654;PMS1003;21773;50.010;19.972;2023-05-20T08:39:13;26.25;23.00;18.50
35654;PMS1003;21773;50.010;19.972;2023-05-20T08:42:19;24.00;21.00;17.00
35654;PMS1003;21773;50.010;19.972;2023-05-20T08:45:26;21.50;19.00;16.00
35654;PMS1003;21773;50.010;19.972;2023-05-20T08:48:35;25.40;20.40;14.60
35654;PMS1003;21773;50.010;19.972;2023-05-20T08:51:40;24.80;21.80;17.80
35654;PMS1003;21773;50.010;19.972;2023-05-20T08:54:45;24.80;22.00;17.60
35654;PMS1003;21773;50.010;19.972;2023-05-20T08:57:51;24.50;22.50;17.50
35654;PMS1003;21773;50.010;19.972;2023-05-20T09:00:55;23.20;21.20;18.00
35654;PMS1003;21773;50.010;19.972;2023-05-20T09:03:59;21.00;20.00;17.00
35654;PMS1003;21773;50.010;19.972;2023-05-20T09:07:04;27.50;24.00;20.00
35654;PMS1003;21773;50.010;19.972;2023-05-20T09:10:08;21.20;19.60;16.60
35654;PMS1003;21773;50.010;19.972;2023-05-20T09:13:12;26.20;24.00;20.00
35654;PMS1003;21773;50.010;19.972;2023-05-20T09:16:15;29.80;24.00;19.80
35654;PMS1003;21773;50.010;19.972;2023-05-20T09:19:19;27.40;25.00;19.60
35654;PMS1003;21773;50.010;19.972;2023-05-20T09:22:26;32.00;24.50;20.00
35654;PMS1003;21773;50.010;19.972;2023-05-20T09:25:30;28.00;22.50;18.75
35654;PMS1003;21773;50.010;19.972;2023-05-20T09:28:35;26.80;23.80;19.00
35654;PMS1003;21773;50.010;19.972;2023-05-20T09:31:40;32.00;27.25;20.00
35654;PMS1003;21773;50.010;19.972;2023-05-20T09:34:43;28.80;24.80;20.20
35654;PMS1003;21773;50.010;19.972;2023-05-20T09:37:52;32.80;27.20;21.00
35654;PMS1003;21773;50.010;19.972;2023-05-20T09:40:57;32.00;28.20;22.00
35654;PMS1003;21773;50.010;19.972;2023-05-20T09:44:03;27.50;24.50;20.00
35654;PMS1003;21773;50.010;19.972;2023-05-20T09:47:07;29.00;25.75;20.50
35654;PMS1003;21773;50.010;19.972;2023-05-20T09:50:11;29.40;27.40;20.00
35654;PMS1003;21773;50.010;19.972;2023-05-20T09:53:17;31.00;29.00;22.00
35654;PMS1003;21773;50.010;19.972;2023-05-20T09:56:22;27.75;24.75;19.00
35654;PMS1003;21773;50.010;19.972;2023-05-20T09:59:27;28.00;25.20;20.00
35654;PMS1003;21773;50.010;19.972;2023-05-20T10:02:33;35.00;29.00;21.80
35654;PMS1003;21773;50.010;19.972;2023-05-20T10:05:38;31.60;27.60;22.00
35654;PMS1003;21773;50.010;19.972;2023-05-20T10:08:51;32.60;29.00;22.00
35654;PMS1003;21773;50.010;19.972;2023-05-20T10:12:18;28.60;25.00;20.00
35654;PMS1003;21773;50.010;19.972;2023-05-20T10:15:29;30.00;24.50;20.00
35654;PMS1003;21773;50.010;19.972;2023-05-20T10:18:47;33.20;29.60;22.00
35654;PMS1003;21773;50.010;19.972;2023-05-20T10:21:57;29.80;26.80;20.80
35654;PMS1003;21773;50.010;19.972;2023-05-20T10:25:05;30.50;27.50;21.50
35654;PMS1003;21773;50.010;19.972;2023-05-20T10:28:09;31.80;26.00;20.00
35654;PMS1003;21773;50.010;19.972;2023-05-20T10:31:16;31.00;29.67;23.00
35654;PMS1003;21773;50.010;19.972;2023-05-20T10:34:21;33.40;30.00;23.00
35654;PMS1003;21773;50.010;19.972;2023-05-20T10:37:26;33.60;29.20;23.80
35654;PMS1003;21773;50.010;19.972;2023-05-20T10:40:33;36.00;29.00;22.00
35654;PMS1003;21773;50.010;19.972;2023-05-20T10:43:37;28.00;25.00;19.60
35654;PMS1003;21773;50.010;19.972;2023-05-20T10:46:41;33.20;29.60;22.80
35654;PMS1003;21773;50.010;19.972;2023-05-20T10:49:49;33.00;28.80;22.00
35654;PMS1003;21773;50.010;19.972;2023-05-20T10:52:52;30.60;29.00;22.00
35654;PMS1003;21773;50.010;19.972;2023-05-20T10:55:57;30.40;27.60;22.00
35654;PMS1003;21773;50.010;19.972;2023-05-20T10:59:00;28.60;25.60;20.00
35654;PMS1003;21773;50.010;19.972;2023-05-20T11:02:04;30.00;26.00;20.00
35654;PMS1003;21773;50.010;19.972;2023-05-20T11:05:08;27.80;26.40;20.80
35654;PMS1003;21773;50.010;19.972;2023-05-20T11:08:13;31.50;28.00;22.00
35654;PMS1003;21773;50.010;19.972;2023-05-20T11:11:30;30.80;27.60;21.80
35654;PMS1003;21773;50.010;19.972;2023-05-20T11:14:34;27.40;25.00;19.60
35654;PMS1003;21773;50.010;19.972;2023-05-20T11:17:37;28.75;25.75;21.00
35654;PMS1003;21773;50.010;19.972;2023-05-20T11:20:40;27.75;25.25;20.50
35654;PMS1003;21773;50.010;19.972;2023-05-20T11:23:44;28.40;25.40;19.40
35654;PMS1003;21773;50.010;19.972;2023-05-20T11:26:49;27.00;25.00;20.00
35654;PMS1003;21773;50.010;19.972;2023-05-20T11:29:53;32.80;25.40;20.00
35654;PMS1003;21773;50.010;19.972;2023-05-20T11:32:57;29.00;25.60;21.00
35654;PMS1003;21773;50.010;19.972;2023-05-20T11:36:01;26.80;24.60;20.00
35654;PMS1003;21773;50.010;19.972;2023-05-20T11:39:11;26.20;23.20;18.20
35654;PMS1003;21773;50.010;19.972;2023-05-20T11:42:17;28.00;25.80;21.80
35654;PMS1003;21773;50.010;19.972;2023-05-20T11:45:21;31.00;29.80;23.00
35654;PMS1003;21773;50.010;19.972;2023-05-20T11:48:25;31.25;27.25;22.00
35654;PMS1003;21773;50.010;19.972;2023-05-20T11:51:29;25.25;24.00;20.00
35654;PMS1003;21773;50.010;19.972;2023-05-20T11:54:34;29.50;27.00;22.00
35654;PMS1003;21773;50.010;19.972;2023-05-20T11:57:39;31.60;26.00;20.00
35654;PMS1003;21773;50.010;19.972;2023-05-20T12:00:42;29.00;25.00;20.00
35654;PMS1003;21773;50.010;19.972;2023-05-20T12:03:55;26.20;25.00;20.00
35654;PMS1003;21773;50.010;19.972;2023-05-20T12:06:59;32.40;28.00;22.00
35654;PMS1003;21773;50.010;19.972;2023-05-20T12:10:02;96.20;64.00;41.40
35654;PMS1003;21773;50.010;19.972;2023-05-20T12:13:07;32.00;29.20;22.20
35654;PMS1003;21773;50.010;19.972;2023-05-20T12:16:12;29.40;26.80;21.00
35654;PMS1003;21773;50.010;19.972;2023-05-20T12:19:15;32.00;28.50;22.00
35654;PMS1003;21773;50.010;19.972;2023-05-20T12:22:19;34.00;28.00;22.00
35654;PMS1003;21773;50.010;19.972;2023-05-20T12:25:22;33.00;28.75;23.00
35654;PMS1003;21773;50.010;19.972;2023-05-20T12:28:27;35.40;31.00;23.00
35654;PMS1003;21773;50.010;19.972;2023-05-20T12:31:30;36.00;30.00;23.40
35654;PMS1003;21773;50.010;19.972;2023-05-20T12:34:35;30.25;28.50;22.00
35654;PMS1003;21773;50.010;19.972;2023-05-20T12:37:40;30.20;27.40;22.00
35654;PMS1003;21773;50.010;19.972;2023-05-20T12:40:44;32.00;29.00;22.00
35654;PMS1003;21773;50.010;19.972;2023-05-20T12:43:48;31.00;26.00;21.00
35654;PMS1003;21773;50.010;19.972;2023-05-20T12:46:53;28.80;27.80;22.00
35654;PMS1003;21773;50.010;19.972;2023-05-20T12:49:56;27.50;26.00;20.00
35654;PMS1003;21773;50.010;19.972;2023-05-20T12:53:00;30.80;29.00;22.60
35654;PMS1003;21773;50.010;19.972;2023-05-20T12:56:04;28.80;27.00;22.00
35654;PMS1003;21773;50.010;19.972;2023-05-20T12:59:10;27.40;25.00;20.00
35654;PMS1003;21773;50.010;19.972;2023-05-20T13:02:13;30.75;27.00;22.00
35654;PMS1003;21773;50.010;19.972;2023-05-20T13:05:16;29.00;25.00;20.60
35654;PMS1003;21773;50.010;19.972;2023-05-20T13:08:20;29.00;26.80;21.00
35654;PMS1003;21773;50.010;19.972;2023-05-20T13:11:24;26.60;24.20;19.80
35654;PMS1003;21773;50.010;19.972;2023-05-20T13:14:28;24.50;23.00;18.00
35654;PMS1003;21773;50.010;19.972;2023-05-20T13:17:32;22.80;20.00;18.00
35654;PMS1003;21773;50.010;19.972;2023-05-20T13:20:36;27.60;25.60;20.60
35654;PMS1003;21773;50.010;19.972;2023-05-20T13:23:39;25.00;24.00;20.00
35654;PMS1003;21773;50.010;19.972;2023-05-20T13:26:47;23.00;20.33;18.33
35654;PMS1003;21773;50.010;19.972;2023-05-20T13:29:53;26.25;24.00;20.00
35654;PMS1003;21773;50.010;19.972;2023-05-20T13:32:56;24.20;23.00;19.00
35654;PMS1003;21773;50.010;19.972;2023-05-20T13:36:00;25.00;24.00;20.00
35654;PMS1003;21773;50.010;19.972;2023-05-20T13:39:03;24.50;23.50;20.00
35654;PMS1003;21773;50.010;19.972;2023-05-20T13:42:07;21.00;20.00;17.00
35654;PMS1003;21773;50.010;19.972;2023-05-20T13:45:12;23.00;22.00;18.75
35654;PMS1003;21773;50.010;19.972;2023-05-20T13:48:15;25.00;21.00;17.25
35654;PMS1003;21773;50.010;19.972;2023-05-20T13:51:19;26.00;22.20;18.20
35654;PMS1003;21773;50.010;19.972;2023-05-20T13:54:22;22.60;21.80;18.80
35654;PMS1003;21773;50.010;19.972;2023-05-20T13:57:26;24.00;22.40;19.00
35654;PMS1003;21773;50.010;19.972;2023-05-20T14:00:31;25.00;23.50;19.75
35654;PMS1003;21773;50.010;19.972;2023-05-20T14:03:35;24.00;22.00;19.00
35654;PMS1003;21773;50.010;19.972;2023-05-20T14:06:40;24.60;22.60;18.60
35654;PMS1003;21773;50.010;19.972;2023-05-20T14:09:43;19.25;18.75;17.00
35654;PMS1003;21773;50.010;19.972;2023-05-20T14:12:47;24.00;22.20;18.00
35654;PMS1003;21773;50.010;19.972;2023-05-20T14:15:52;25.00;23.00;20.00
35654;PMS1003;21773;50.010;19.972;2023-05-20T14:18:56;25.00;22.00;18.40
35654;PMS1003;21773;50.010;19.972;2023-05-20T14:21:59;24.40;23.00;19.00
35654;PMS1003;21773;50.010;19.972;2023-05-20T14:25:04;23.40;21.00;18.00
35654;PMS1003;21773;50.010;19.972;2023-05-20T14:28:08;25.00;22.50;19.00
35654;PMS1003;21773;50.010;19.972;2023-05-20T14:31:13;20.75;18.75;16.25
35654;PMS1003;21773;50.010;19.972;2023-05-20T14:34:16;23.00;22.00;18.75
35654;PMS1003;21773;50.010;19.972;2023-05-20T14:37:19;21.50;20.00;17.50
35654;PMS1003;21773;50.010;19.972;2023-05-20T14:40:23;22.00;19.00;16.00
35654;PMS1003;21773;50.010;19.972;2023-05-20T14:43:27;20.40;19.60;16.60
35654;PMS1003;21773;50.010;19.972;2023-05-20T14:46:34;17.50;16.00;15.00
35654;PMS1003;21773;50.010;19.972;2023-05-20T14:49:37;21.00;18.00;16.00
35654;PMS1003;21773;50.010;19.972;2023-05-20T14:52:42;20.20;19.20;16.20
35654;PMS1003;21773;50.010;19.972;2023-05-20T14:55:49;22.25;20.00;16.00
35654;PMS1003;21773;50.010;19.972;2023-05-20T14:58:53;21.75;19.75;17.75
35654;PMS1003;21773;50.010;19.972;2023-05-20T15:01:57;21.75;20.00;17.00
35654;PMS1003;21773;50.010;19.972;2023-05-20T15:05:01;20.20;19.00;16.00
35654;PMS1003;21773;50.010;19.972;2023-05-20T15:08:04;21.00;19.00;17.00
35654;PMS1003;21773;50.010;19.972;2023-05-20T15:11:08;19.00;18.00;16.00
35654;PMS1003;21773;50.010;19.972;2023-05-20T15:14:12;21.25;21.00;18.00
35654;PMS1003;21773;50.010;19.972;2023-05-20T15:17:16;20.00;19.00;17.00
35654;PMS1003;21773;50.010;19.972;2023-05-20T15:20:20;20.20;19.60;17.20
35654;PMS1003;21773;50.010;19.972;2023-05-20T15:23:24;21.00;19.60;16.00
35654;PMS1003;21773;50.010;19.972;2023-05-20T15:26:28;20.00;19.40;17.00
35654;PMS1003;21773;50.010;19.972;2023-05-20T15:29:32;20.60;19.00;16.60
35654;PMS1003;21773;50.010;19.972;2023-05-20T15:32:37;19.40;17.00;15.00
35654;PMS1003;21773;50.010;19.972;2023-05-20T15:35:42;19.60;18.00;15.00
35654;PMS1003;21773;50.010;19.972;2023-05-20T15:38:45;20.20;19.20;17.00
35654;PMS1003;21773;50.010;19.972;2023-05-20T15:41:48;18.00;17.00;14.00
35654;PMS1003;21773;50.010;19.972;2023-05-20T15:44:53;20.00;19.00;16.00
35654;PMS1003;21773;50.010;19.972;2023-05-20T15:47:58;18.20;17.00;16.00
35654;PMS1003;21773;50.010;19.972;2023-05-20T15:51:02;18.60;18.60;15.60
35654;PMS1003;21773;50.010;19.972;2023-05-20T15:54:06;18.50;18.00;16.50
35654;PMS1003;21773;50.010;19.972;2023-05-20T15:57:09;20.25;18.25;16.00
35654;PMS1003;21773;50.010;19.972;2023-05-20T16:00:13;15.00;15.00;13.00
35654;PMS1003;21773;50.010;19.972;2023-05-20T16:03:21;20.60;19.40;17.00
35654;PMS1003;21773;50.010;19.972;2023-05-20T16:06:24;19.00;19.00;16.00
35654;PMS1003;21773;50.010;19.972;2023-05-20T16:09:28;17.00;16.00;14.00
35654;PMS1003;21773;50.010;19.972;2023-05-20T16:12:31;18.00;17.40;16.00
35654;PMS1003;21773;50.010;19.972;2023-05-20T16:15:35;17.75;17.00;15.00
35654;PMS1003;21773;50.010;19.972;2023-05-20T16:18:40;16.00;14.40;13.00
35654;PMS1003;21773;50.010;19.972;2023-05-20T16:21:44;17.00;16.00;14.00
35654;PMS1003;21773;50.010;19.972;2023-05-20T16:24:47;15.00;15.00;13.00
35654;PMS1003;21773;50.010;19.972;2023-05-20T16:27:50;19.00;17.00;15.00
35654;PMS1003;21773;50.010;19.972;2023-05-20T16:30:54;18.67;17.00;15.67
35654;PMS1003;21773;50.010;19.972;2023-05-20T16:34:00;14.60;13.60;11.60
35654;PMS1003;21773;50.010;19.972;2023-05-20T16:37:05;15.80;14.00;12.00
35654;PMS1003;21773;50.010;19.972;2023-05-20T16:40:08;17.75;16.00;14.25
35654;PMS1003;21773;50.010;19.972;2023-05-20T16:43:12;15.00;15.00;13.00
35654;PMS1003;21773;50.010;19.972;2023-05-20T16:46:16;18.25;17.00;16.00
35654;PMS1003;21773;50.010;19.972;2023-05-20T16:49:22;16.00;15.50;14.00
35654;PMS1003;21773;50.010;19.972;2023-05-20T16:52:25;15.00;14.00;12.00
35654;PMS1003;21773;50.010;19.972;2023-05-20T16:55:28;16.00;14.00;13.00
35654;PMS1003;21773;50.010;19.972;2023-05-20T16:58:32;16.60;16.00;13.00
35654;PMS1003;21773;50.010;19.972;2023-05-20T17:01:35;12.20;12.00;10.80